Terminal Aerodrome Forecast
Issued by NWS Blacksburg, VA

Home | Current Version | Previous Version | Text Only | Print | Product List | Glossary On
Versions: 1 2 3 4 5 6 7 8 9 10 11 12 13 14 15 16 17 18 19 20 21 22 23 24 25 26 27 28 29 30 31
000
FTUS41 KRNK 210532
TAFLYH
TAF
KLYH 210532Z 2106/2206 00000KT 1/4SM FG VV002
     FM211400 21007KT P6SM OVC020
     FM211600 21010G18KT P6SM BKN040
     FM220200 21004KT 1SM BR OVC007=

USA.gov is the U.S. government's official web portal to all federal, state and local government web resources and services.